ADDS METAR Data INFO
IDs: Format: Raw Decoded Include TAF

Data at: 1002 UTC 12 Dec 2017

KA39 120935Z AUTO 00000KT 10SM CLR 05/M11 A3028 RMK AO2
KA39 120915Z AUTO 00000KT 10SM CLR 06/M11 A3028 RMK AO2
KA39 120855Z AUTO 00000KT 10SM CLR 06/M10 A3028 RMK AO2
KA39 120835Z AUTO 13003KT 10SM CLR 09/M09 A3028 RMK AO2
KA39 120815Z AUTO 06003KT 10SM CLR 09/M09 A3027 RMK AO2
KA39 120755Z AUTO 00000KT 10SM CLR 08/M09 A3027 RMK AO2
KA39 120735Z AUTO 00000KT 10SM CLR 07/M09 A3027 RMK AO2
KA39 120715Z AUTO 00000KT 10SM CLR 08/M09 A3027 RMK AO2
KA39 120655Z AUTO 00000KT 10SM CLR 07/M09 A3027 RMK AO2
KA39 120635Z AUTO 12005KT 10SM CLR 07/M09 A3027 RMK AO2
KA39 120615Z AUTO 16005KT 10SM CLR 09/M08 A3027 RMK AO2
KA39 120555Z AUTO 15005KT 10SM CLR 08/M09 A3027 RMK AO2
KA39 120535Z AUTO 17004KT 10SM CLR 09/M08 A3027 RMK AO2
KA39 120515Z AUTO 14004KT 7SM CLR 09/M08 A3026 RMK AO2
KA39 120455Z AUTO 13003KT 7SM CLR 09/M07 A3026 RMK AO2
KA39 120435Z AUTO 14003KT 7SM CLR 08/M08 A3025 RMK AO2
KA39 120415Z AUTO 00000KT 10SM CLR 11/M07 A3025 RMK AO2
KA39 120355Z AUTO 00000KT 10SM CLR 12/M07 A3025 RMK AO2
KA39 120335Z AUTO 00000KT 10SM CLR 12/M08 A3025 RMK AO2
KA39 120315Z AUTO 00000KT 10SM CLR 13/M09 A3024 RMK AO2
KA39 120255Z AUTO 00000KT 10SM CLR 14/M09 A3025 RMK AO2
KA39 120235Z AUTO 00000KT 10SM CLR 13/M09 A3025 RMK AO2
KA39 120215Z AUTO 00000KT 10SM CLR 13/M08 A3024 RMK AO2
KA39 120155Z AUTO 00000KT 10SM CLR 15/M08 A3024 RMK AO2
KA39 120135Z AUTO 00000KT 10SM SCT120 17/M06 A3024 RMK AO2
KA39 120115Z AUTO 00000KT 10SM SCT120 16/M06 A3023 RMK AO2
KA39 120055Z AUTO 00000KT 10SM CLR 19/M05 A3023 RMK AO2
KA39 120035Z AUTO 00000KT 10SM CLR 19/M04 A3023 RMK AO2
KA39 120015Z AUTO 00000KT 10SM CLR 20/M05 A3023 RMK AO2
KA39 112355Z AUTO 21004KT 10SM CLR 21/M07 A3022 RMK AO2
KA39 112335Z AUTO 02005KT 10SM CLR 23/M08 A3021 RMK AO2
KA39 112315Z AUTO 03006KT 10SM CLR 24/M09 A3021 RMK AO2
KA39 112255Z AUTO 05006KT 10SM CLR 24/M09 A3020 RMK AO2
KA39 112235Z AUTO 05010KT 10SM CLR 24/M09 A3021 RMK AO2
KA39 112215Z AUTO 08004KT 10SM CLR 24/M09 A3021 RMK AO2
KA39 112155Z AUTO 10005KT 10SM CLR 25/M09 A3021 RMK AO2
KA39 112135Z AUTO 06005KT 10SM CLR 24/M09 A3021 RMK AO2
KA39 112115Z AUTO 00000KT 10SM CLR 24/M09 A3021 RMK AO2
KA39 112055Z AUTO 14003KT 10SM CLR 23/M08 A3021 RMK AO2
KA39 112035Z AUTO 14005KT 10SM CLR 23/M08 A3022 RMK AO2
KA39 112015Z AUTO 00000KT 10SM CLR 23/M08 A3023 RMK AO2
KA39 111955Z AUTO 14004KT 10SM CLR 23/M09 A3024 RMK AO2
KA39 111935Z AUTO 10005KT 10SM CLR 23/M09 A3025 RMK AO2
KA39 111915Z AUTO 09007KT 040V100 10SM CLR 23/M09 A3026 RMK AO2
KA39 111855Z AUTO 15004KT 10SM CLR 22/M08 A3027 RMK AO2
KA39 111835Z AUTO 12006KT 10SM CLR 21/M08 A3028 RMK AO2
KA39 111815Z AUTO 11008KT 10SM CLR 21/M08 A3029 RMK AO2
KA39 111755Z AUTO 13009KT 10SM CLR 21/M08 A3030 RMK AO2
KA39 111735Z AUTO 11009KT 10SM CLR 22/M09 A3030 RMK AO2
KA39 111715Z AUTO 11011KT 10SM CLR 22/M09 A3030 RMK AO2
KA39 111655Z AUTO 09010KT 10SM CLR 21/M08 A3030 RMK AO2
KA39 111635Z AUTO 00000KT 10SM CLR 18/M07 A3030 RMK AO2
KA39 111615Z AUTO 17003KT 10SM CLR 17/M06 A3029 RMK AO2
KA39 111555Z AUTO 00000KT 10SM CLR 17/M07 A3029 RMK AO2
KA39 111535Z AUTO 05004KT 10SM CLR 18/M10 A3028 RMK AO2
KA39 111515Z AUTO 03004KT 10SM CLR 14/M10 A3028 RMK AO2
KA39 111455Z AUTO 01005KT 10SM CLR 13/M10 A3028 RMK AO2
KA39 111435Z AUTO 05004KT 10SM CLR 13/M10 A3027 RMK AO2
KA39 111415Z AUTO 04003KT 10SM CLR 14/M10 A3027 RMK AO2
KA39 111355Z AUTO 01007KT 10SM CLR 12/M10 A3027 RMK AO2
KA39 111335Z AUTO 36005KT 10SM CLR 12/M10 A3026 RMK AO2
KA39 111315Z AUTO 01005KT 10SM CLR 12/M10 A3026 RMK AO2
KA39 111255Z AUTO 36004KT 10SM CLR 10/M08 A3026 RMK AO2
KA39 111235Z AUTO 00000KT 10SM CLR 10/M07 A3026 RMK AO2
KA39 111215Z AUTO 33003KT 10SM CLR 10/M07 A3026 RMK AO2
KA39 111155Z AUTO 00000KT 10SM CLR 10/M07 A3026 RMK AO2
KA39 111135Z AUTO 00000KT 10SM CLR 11/M08 A3025 RMK AO2
KA39 111115Z AUTO 34003KT 10SM CLR 10/M07 A3026 RMK AO2
KA39 111055Z AUTO 25003KT 10SM CLR 10/M06 A3026 RMK AO2
KA39 111035Z AUTO 25005KT 10SM CLR 11/M07 A3026 RMK AO2
KA39 111015Z AUTO 33004KT 10SM CLR 13/M09 A3026 RMK AO2
KA39 110955Z AUTO 26003KT 10SM CLR 15/M09 A3027 RMK AO2
KA39 110935Z AUTO 09010KT 10SM CLR 18/M11 A3026 RMK AO2
KA39 110915Z AUTO 10007KT 10SM CLR 18/M11 A3026 RMK AO2
KA39 110855Z AUTO 11007KT 10SM CLR 18/M11 A3026 RMK AO2
KA39 110835Z AUTO 09011KT 10SM CLR 19/M11 A3025 RMK AO2
KA39 110815Z AUTO 08009KT 10SM CLR 18/M10 A3025 RMK AO2
KA39 110755Z AUTO 10011G16KT 10SM CLR 19/M10 A3026 RMK AO2
KA39 110735Z AUTO 10007KT 10SM CLR 17/M10 A3026 RMK AO2
KA39 110715Z AUTO 23004KT 10SM CLR 14/M08 A3026 RMK AO2
KA39 110655Z AUTO 00000KT 10SM CLR 17/M09 A3026 RMK AO2
KA39 110635Z AUTO 25006KT 10SM CLR 15/M08 A3026 RMK AO2
KA39 110615Z AUTO 07007KT 10SM CLR 20/M10 A3025 RMK AO2
KA39 110555Z AUTO 08011KT 10SM CLR 20/M10 A3025 RMK AO2
KA39 110535Z AUTO 09013G16KT 10SM CLR 20/M10 A3025 RMK AO2
KA39 110515Z AUTO 09010KT 10SM CLR 19/M10 A3025 RMK AO2
KA39 110455Z AUTO 09010KT 10SM CLR 20/M10 A3025 RMK AO2
KA39 110435Z AUTO 10013KT 10SM CLR 20/M10 A3024 RMK AO2
KA39 110415Z AUTO 09015KT 10SM CLR 21/M10 A3024 RMK AO2
KA39 110355Z AUTO 09015KT 10SM CLR 21/M10 A3023 RMK AO2
KA39 110335Z AUTO 09015KT 10SM CLR 21/M10 A3022 RMK AO2
KA39 110315Z AUTO 09014KT 10SM CLR 21/M10 A3022 RMK AO2
KA39 110255Z AUTO 08014G18KT 10SM CLR 21/M11 A3021 RMK AO2
KA39 110235Z AUTO 08015G21KT 10SM CLR 22/M11 A3021 RMK AO2
KA39 110220Z AUTO 08014KT 10SM CLR 22/M11 A3021 RMK AO2
KA39 110155Z AUTO 09011KT 10SM CLR 21/M11 A3021 RMK AO2
KA39 110135Z AUTO 09011KT 10SM CLR 21/M11 A3020 RMK AO2
KA39 110115Z AUTO 09011G16KT 10SM CLR 21/M11 A3020 RMK AO2
KA39 110055Z AUTO 09009KT 10SM CLR 21/M11 A3020 RMK AO2
KA39 110035Z AUTO 09009KT 10SM CLR 21/M11 A3019 RMK AO2
KA39 110015Z AUTO 09009KT 10SM CLR 22/M11 A3019 RMK AO2
KA39 102355Z AUTO 08012KT 10SM CLR 23/M11 A3019 RMK AO2
KA39 102335Z AUTO 08010KT 10SM CLR 24/M11 A3019 RMK AO2
KA39 102315Z AUTO 08012G17KT 10SM CLR 24/M11 A3019 RMK AO2
KA39 102255Z AUTO 07011G18KT 10SM CLR 24/M11 A3019 RMK AO2
KA39 102235Z AUTO 07013G18KT 10SM CLR 24/M11 A3019 RMK AO2
KA39 102215Z AUTO 08017G21KT 10SM CLR 25/M10 A3019 RMK AO2